ADDS METAR Data INFO
IDs: Format: Raw Decoded Include TAF

Data at: 1844 UTC 17 Oct 2017

KHAI 171836Z AUTO 24007KT 10SM CLR 20/05 A3019 RMK AO2 T02000051
KHAI 171815Z AUTO 22009G15KT 10SM CLR 20/05 A3020 RMK AO2 T01970053
KHAI 171756Z AUTO 23008G14KT 200V260 10SM CLR 20/06 A3020 RMK AO2 T01960060 10197 20060
KHAI 171736Z AUTO 25007KT 10SM CLR 19/06 A3021 RMK AO2 T01920061
KHAI 171715Z AUTO 24010G15KT 210V270 10SM CLR 19/06 A3022 RMK AO2 T01910059
KHAI 171656Z AUTO 22013KT 10SM CLR 18/06 A3022 RMK AO2 T01840059
KHAI 171636Z AUTO 23010G17KT 10SM CLR 18/06 A3022 RMK AO2 T01770060
KHAI 171615Z AUTO 23008G15KT 10SM CLR 17/06 A3023 RMK AO2 T01680055
KHAI 171556Z AUTO 25007G17KT 10SM CLR 16/05 A3023 RMK AO2 T01630053
KHAI 171536Z AUTO 24008G15KT 10SM CLR 16/05 A3023 RMK AO2 T01550050
KHAI 171515Z AUTO 23011G16KT 10SM CLR 15/05 A3024 RMK AO2 T01470052
KHAI 171456Z AUTO 24008KT 10SM CLR 14/05 A3024 RMK AO2 T01400052
KHAI 171435Z AUTO 23008KT 10SM CLR 13/06 A3024 RMK AO2 T01300055
KHAI 171415Z AUTO 23009KT 10SM CLR 12/06 A3024 RMK AO2 T01200056
KHAI 171356Z AUTO 22007KT 10SM CLR 11/06 A3024 RMK AO2 T01080058
KHAI 171335Z AUTO 22008KT 10SM CLR 10/06 A3023 RMK AO2 T00970057
KHAI 171315Z AUTO 22009KT 10SM CLR 09/05 A3024 RMK AO2 T00880053
KHAI 171256Z AUTO 21009KT 10SM CLR 08/05 A3023 RMK AO2 T00770049
KHAI 171235Z AUTO 21008KT 10SM CLR 07/05 A3023 RMK AO2 T00690045
KHAI 171216Z AUTO 21006KT 10SM CLR 06/04 A3023 RMK AO2 T00630041
KHAI 171156Z AUTO 20006KT 10SM CLR 06/04 A3024 RMK AO2 T00600040 10066 20055
KHAI 171135Z AUTO 21005KT 10SM CLR 06/04 A3024 RMK AO2 T00580038
KHAI 171116Z AUTO 21004KT 10SM CLR 06/04 A3025 RMK AO2 T00600039
KHAI 171056Z AUTO 21006KT 10SM CLR 06/04 A3024 RMK AO2 T00610041
KHAI 171035Z AUTO 21005KT 10SM CLR 06/04 A3024 RMK AO2 T00600040
KHAI 171016Z AUTO 21004KT 10SM CLR 06/04 A3024 RMK AO2 T00600040
KHAI 170956Z AUTO 20005KT 10SM CLR 06/04 A3024 RMK AO2 T00590041
KHAI 170935Z AUTO 20004KT 10SM CLR 06/04 A3024 RMK AO2 T00570040
KHAI 170916Z AUTO 20004KT 10SM CLR 06/04 A3024 RMK AO2 T00550037
KHAI 170856Z AUTO 21003KT 10SM CLR 06/04 A3024 RMK AO2 T00550038
KHAI 170835Z AUTO 21003KT 10SM CLR 06/04 A3024 RMK AO2 T00560038
KHAI 170816Z AUTO 20004KT 10SM CLR 06/04 A3024 RMK AO2 T00570038
KHAI 170756Z AUTO 21004KT 10SM CLR 06/04 A3024 RMK AO2 T00600040
KHAI 170735Z AUTO 22003KT 10SM CLR 06/04 A3024 RMK AO2 T00600041
KHAI 170716Z AUTO 20003KT 10SM CLR 06/04 A3024 RMK AO2 T00600041
KHAI 170655Z AUTO 20005KT 10SM CLR 06/04 A3024 RMK AO2 T00600041
KHAI 170636Z AUTO 19004KT 10SM CLR 06/05 A3024 RMK AO2 T00630045
KHAI 170616Z AUTO 00000KT 10SM CLR 07/05 A3024 RMK AO2 T00650045
KHAI 170555Z AUTO 00000KT 10SM CLR 07/05 A3024 RMK AO2 T00670047 10095 20062 401580062
KHAI 170536Z AUTO 00000KT 10SM CLR 07/05 A3024 RMK AO2 T00650047
KHAI 170516Z AUTO 00000KT 10SM CLR 06/04 A3024 RMK AO2 T00620043
KHAI 170455Z AUTO 00000KT 10SM CLR 07/05 A3024 RMK AO2 T00670046
KHAI 170436Z AUTO 00000KT 10SM CLR 07/05 A3024 RMK AO2 T00700046
KHAI 170416Z AUTO 21003KT 10SM CLR 07/05 A3024 RMK AO2 T00680047
KHAI 170355Z AUTO 20004KT 10SM CLR 07/05 A3024 RMK AO2 T00650045
KHAI 170336Z AUTO 20003KT 10SM CLR 07/04 A3024 RMK AO2 T00670043
KHAI 170315Z AUTO 00000KT 10SM CLR 07/05 A3024 RMK AO2 T00710049
KHAI 170256Z AUTO 18003KT 10SM CLR 07/05 A3024 RMK AO2 T00680045
KHAI 170236Z AUTO 00000KT 10SM CLR 08/05 A3025 RMK AO2 T00770051
KHAI 170215Z AUTO 00000KT 10SM CLR 07/06 A3024 RMK AO2 T00730060
KHAI 170156Z AUTO 00000KT 10SM CLR 07/06 A3025 RMK AO2 T00720060
KHAI 170136Z AUTO 00000KT 10SM CLR 08/06 A3025 RMK AO2 T00750056
KHAI 170115Z AUTO 00000KT 10SM CLR 08/06 A3025 RMK AO2 T00770057
KHAI 170056Z AUTO 00000KT 10SM CLR 08/06 A3025 RMK AO2 T00800060
KHAI 170035Z AUTO 00000KT 10SM CLR 08/05 A3025 RMK AO2 T00830054
KHAI 170015Z AUTO 00000KT 10SM CLR 09/05 A3025 RMK AO2 T00870046
KHAI 162356Z AUTO 00000KT 10SM CLR 10/04 A3025 RMK AO2 T00950042 10158 20093
KHAI 162335Z AUTO 00000KT 10SM CLR 10/05 A3026 RMK AO2 T01010048
KHAI 162316Z AUTO 00000KT 10SM CLR 11/05 A3026 RMK AO2 T01120051
KHAI 162256Z AUTO 00000KT 10SM CLR 13/02 A3025 RMK AO2 T01300023
KHAI 162235Z AUTO 27003KT 10SM CLR 14/03 A3025 RMK AO2 T01350028
KHAI 162216Z AUTO 28005KT 10SM CLR 14/03 A3025 RMK AO2 T01410030
KHAI 162156Z AUTO 26003KT 10SM CLR 15/02 A3025 RMK AO2 T01450016
KHAI 162135Z AUTO 27008KT 10SM SCT050 15/03 A3026 RMK AO2 T01500025
KHAI 162116Z AUTO 28009KT 10SM SCT049 15/03 A3026 RMK AO2 T01520027
KHAI 162056Z AUTO 29007KT 250V310 10SM SCT049 15/03 A3026 RMK AO2 T01530031
KHAI 162035Z AUTO 26007KT 10SM SCT049 SCT065 15/03 A3027 RMK AO2 T01490030
KHAI 162016Z AUTO 27010G14KT 10SM BKN049 BKN065 16/03 A3027 RMK AO2 T01550025
KHAI 161955Z AUTO 31005KT 10SM SCT049 SCT055 15/04 A3027 RMK AO2 T01490043
KHAI 161936Z AUTO 29010G16KT 10SM BKN047 OVC060 16/05 A3027 RMK AO2 T01560046
KHAI 161916Z AUTO 33008KT 310V010 10SM BKN049 OVC060 15/05 A3027 RMK AO2 T01470049
KHAI 161855Z AUTO 31006KT 10SM SCT046 BKN070 14/04 A3027 RMK AO2 T01430041
KHAI 161836Z AUTO 31011G16KT 10SM SCT044 BKN050 BKN070 15/04 A3028 RMK AO2 T01480039
KHAI 161816Z AUTO 32008KT 10SM SCT044 BKN050 BKN060 15/05 A3028 RMK AO2 T01510052
KHAI 161755Z AUTO 29008G14KT 10SM SCT031 BKN046 OVC070 14/05 A3029 RMK AO2 T01380050 10144 20064
KHAI 161736Z AUTO 27006KT 10SM SCT034 BKN046 OVC060 13/06 A3030 RMK AO2 T01270060
KHAI 161716Z AUTO 28009KT 10SM SCT032 BKN040 BKN060 14/07 A3030 RMK AO2 T01350067
KHAI 161655Z AUTO 29008KT 10SM SCT028 SCT033 SCT041 14/07 A3030 RMK AO2 T01390066
KHAI 161636Z AUTO 27009KT 10SM SCT075 13/07 A3031 RMK AO2 T01340070
KHAI 161616Z AUTO 27005KT 10SM SCT032 BKN044 OVC075 12/07 A3031 RMK AO2 T01200072
KHAI 161555Z AUTO 27005KT 10SM SCT014 SCT019 BKN026 12/08 A3031 RMK AO2 T01190076
KHAI 161536Z AUTO 21005KT 10SM SCT013 SCT020 SCT037 12/09 A3031 RMK AO2 T01220093
KHAI 161516Z AUTO 00000KT 10SM SCT055 11/09 A3031 RMK AO2 T01110091
KHAI 161455Z AUTO 24004KT 10SM SCT004 SCT035 BKN085 10/09 A3031 RMK AO2 T00990093
KHAI 161436Z AUTO 20004KT 10SM SCT005 SCT032 OVC085 10/09 A3031 RMK AO2 T00950090
KHAI 161416Z AUTO 17004KT 7SM -RA BKN003 BKN027 OVC040 09/09 A3031 RMK AO2 T00900086
KHAI 161355Z AUTO 19003KT 10SM BKN003 BKN037 OVC085 09/09 A3030 RMK AO2 T00910088
KHAI 161336Z AUTO 20005KT 10SM SCT003 OVC085 09/08 A3030 RMK AO2 T00860083
KHAI 161316Z AUTO 00000KT 10SM SCT001 OVC085 09/08 A3029 RMK AO2 T00860084
KHAI 161255Z AUTO 00000KT 7SM BKN001 BKN036 07/07 A3029 RMK AO2 T00730070
KHAI 161236Z AUTO 00000KT 7SM SCT032 SCT038 08/07 A3029 RMK AO2 T00750072
KHAI 161216Z AUTO 00000KT 2 1/2SM BR SCT034 07/06 A3027 RMK AO2 VIS 1V5 T00660063
KHAI 161155Z AUTO 00000KT 3SM BR SCT028 SCT036 07/06 A3027 RMK AO2 T00680064 10096 20067
KHAI 161136Z AUTO 00000KT 10SM SCT030 08/07 A3027 RMK AO2 T00750071
KHAI 161116Z AUTO 00000KT 10SM BKN030 BKN035 BKN043 08/07 A3026 RMK AO2 T00760071
KHAI 161055Z AUTO 00000KT 10SM SCT031 BKN039 08/07 A3026 RMK AO2 T00770072
KHAI 161036Z AUTO 00000KT 10SM SCT031 SCT037 SCT047 08/07 A3026 RMK AO2 T00800073
KHAI 161016Z AUTO 00000KT 10SM BKN035 BKN049 BKN060 09/08 A3025 RMK AO2 T00850076
KHAI 160955Z AUTO 00000KT 10SM BKN037 OVC046 09/08 A3025 RMK AO2 T00890081
KHAI 160936Z AUTO 00000KT 10SM SCT039 OVC045 09/08 A3025 RMK AO2 T00860077
KHAI 160916Z AUTO 00000KT 10SM SCT004 BKN037 BKN045 09/08 A3024 RMK AO2 T00890076
KHAI 160855Z AUTO 00000KT 10SM BKN004 BKN038 BKN060 10/09 A3024 RMK AO2 T00950086
KHAI 160836Z AUTO 00000KT 7SM -RA SCT004 BKN036 OVC060 09/08 A3023 RMK AO2 T00860079
KHAI 160816Z AUTO 00000KT 10SM BKN034 OVC045 09/08 A3023 RMK AO2 T00890080
KHAI 160755Z AUTO 00000KT 10SM BKN038 OVC044 09/08 A3023 RMK AO2 T00870080
KHAI 160736Z AUTO 00000KT 10SM -DZ SCT040 BKN047 OVC050 09/08 A3023 RMK AO2 T00880080
KHAI 160716Z AUTO 00000KT 10SM -RA SCT032 BKN041 OVC049 09/08 A3023 RMK AO2 T00870078
KHAI 160655Z AUTO 29005KT 7SM -RA SCT015 BKN032 OVC040 09/08 A3024 RMK AO2 T00900078